Time;durP1;ratioP1;P1;durP2;ratioP2;P2;SDS_P1;SDS_P2;PMS_P1;PMS_P2;Temp;Humidity;BMP_temperature;BMP_pressure;BME280_temperature;BME280_humidity;BME280_pressure;Samples;Min_cycle;Max_cycle;Signal;HPM_P1;HPM_P2
2023/10/29 00:00:10;;;;;;;0.40;0.40;;;;;;;6.81;100.00;97203.22;4999534;28;20045;-76
2023/10/29 00:02:36;;;;;;;0.43;0.43;;;;;;;6.81;100.00;97190.69;4999211;28;20040;-76
2023/10/29 00:05:02;;;;;;;0.40;0.40;;;;;;;6.80;100.00;97196.25;5015596;28;20025;-76
2023/10/29 00:07:28;;;;;;;0.40;0.40;;;;;;;6.81;100.00;97192.53;5001231;28;20361;-77
2023/10/29 00:09:54;;;;;;;0.40;0.40;;;;;;;6.80;100.00;97181.06;5034902;28;20045;-77
2023/10/29 00:12:20;;;;;;;0.40;0.40;;;;;;;6.85;100.00;97188.31;5018922;28;20472;-76
2023/10/29 00:14:47;;;;;;;0.30;0.30;;;;;;;6.85;100.00;97193.66;5018806;28;20116;-76
2023/10/29 00:17:12;;;;;;;0.30;0.30;;;;;;;6.83;100.00;97182.44;5002420;28;20068;-76
2023/10/29 00:19:38;;;;;;;0.40;0.40;;;;;;;6.77;100.00;97170.84;4999024;28;20073;-76
2023/10/29 00:22:04;;;;;;;0.40;0.40;;;;;;;6.79;100.00;97176.75;4998978;28;20584;-76
2023/10/29 00:24:29;;;;;;;0.30;0.30;;;;;;;6.77;100.00;97178.88;4998839;28;20042;-76
2023/10/29 00:26:55;;;;;;;0.40;0.40;;;;;;;6.74;100.00;97173.97;4999458;28;20034;-76
2023/10/29 00:29:20;;;;;;;0.40;0.40;;;;;;;6.75;100.00;97180.16;5031559;28;20473;-76
2023/10/29 00:31:46;;;;;;;0.30;0.30;;;;;;;6.73;100.00;97174.25;5014791;28;20104;-76
2023/10/29 00:34:12;;;;;;;0.40;0.40;;;;;;;6.75;100.00;97180.16;5015293;28;20033;-76
2023/10/29 00:36:37;;;;;;;0.38;0.38;;;;;;;6.72;100.00;97172.59;5016732;28;20460;-76
2023/10/29 00:39:03;;;;;;;0.40;0.40;;;;;;;6.76;100.00;97174.56;5002131;28;20037;-76
2023/10/29 00:41:29;;;;;;;0.38;0.38;;;;;;;6.82;100.00;97170.91;5034717;28;20361;-76
2023/10/29 00:43:54;;;;;;;0.40;0.40;;;;;;;6.79;100.00;97165.25;5034651;28;20418;-75
2023/10/29 00:46:20;;;;;;;0.40;0.40;;;;;;;6.78;100.00;97160.97;5035791;28;20033;-76
2023/10/29 00:48:46;;;;;;;0.30;0.30;;;;;;;6.78;100.00;97164.47;5001924;28;20044;-77
2023/10/29 00:51:12;;;;;;;0.40;0.40;;;;;;;6.79;100.00;97158.06;5018497;28;20034;-75
2023/10/29 00:53:38;;;;;;;0.38;0.38;;;;;;;6.80;100.00;97159.69;5034304;28;20033;-76
2023/10/29 00:56:04;;;;;;;0.40;0.40;;;;;;;6.84;100.00;97168.03;5033925;28;20044;-76
2023/10/29 00:58:30;;;;;;;0.40;0.40;;;;;;;6.86;100.00;97181.97;5019011;28;20106;-76
2023/10/29 01:00:55;;;;;;;0.30;0.30;;;;;;;6.86;100.00;97176.63;5001789;28;20460;-76
2023/10/29 01:03:22;;;;;;;0.40;0.40;;;;;;;6.81;100.00;97181.84;5017940;28;20128;-75
2023/10/29 01:05:48;;;;;;;0.30;0.30;;;;;;;6.76;100.00;97177.22;5018002;28;20517;-75
2023/10/29 01:08:14;;;;;;;0.40;0.40;;;;;;;6.80;100.00;97183.72;5001448;28;20127;-76
2023/10/29 01:10:40;;;;;;;0.40;0.40;;;;;;;6.78;100.00;97180.47;5001462;28;20102;-76
2023/10/29 01:13:05;;;;;;;0.40;0.40;;;;;;;6.78;100.00;97180.47;5017748;28;20468;-76
2023/10/29 01:15:32;;;;;;;0.40;0.40;;;;;;;6.80;100.00;97186.41;5033639;28;20029;-75
2023/10/29 01:17:58;;;;;;;0.45;0.45;;;;;;;6.81;100.00;97192.53;5017647;28;20112;-75
2023/10/29 01:20:24;;;;;;;0.40;0.40;;;;;;;6.81;100.00;97197.88;5034130;28;20515;-76
2023/10/29 01:22:49;;;;;;;0.40;0.40;;;;;;;6.75;100.00;97190.84;5017243;28;20112;-75
2023/10/29 01:25:15;;;;;;;0.40;0.40;;;;;;;6.81;100.00;97197.88;5017410;28;20102;-75
2023/10/29 01:27:41;;;;;;;0.40;0.40;;;;;;;6.78;100.00;97195.69;4983295;28;20077;-75
2023/10/29 01:30:07;;;;;;;0.40;0.40;;;;;;;6.78;100.00;97185.00;4981635;28;20073;-76
2023/10/29 01:32:33;;;;;;;0.40;0.40;;;;;;;6.78;100.00;97191.16;5014600;28;20069;-77
2023/10/29 01:34:58;;;;;;;0.40;0.40;;;;;;;6.79;100.00;97186.63;5013451;28;20428;-75
2023/10/29 01:37:24;;;;;;;0.40;0.40;;;;;;;6.76;100.00;97181.75;4998235;28;20492;-75
2023/10/29 01:39:53;;;;;;;0.40;0.40;;;;;;;6.74;100.00;97184.66;5029778;28;20033;-75
2023/10/29 01:42:19;;;;;;;0.40;0.40;;;;;;;6.75;100.00;97191.63;4981277;28;20033;-76
2023/10/29 01:44:44;;;;;;;0.40;0.40;;;;;;;6.70;100.00;97193.41;5016191;28;20036;-76
2023/10/29 01:47:10;;;;;;;0.30;0.30;;;;;;;6.72;100.00;97193.97;5033938;28;20045;-75
2023/10/29 01:49:35;;;;;;;0.40;0.40;;;;;;;6.70;100.00;97196.88;5017090;28;20124;-75
2023/10/29 01:52:01;;;;;;;0.50;0.50;;;;;;;6.70;100.00;97188.88;5017046;28;20045;-75
2023/10/29 01:54:27;;;;;;;0.40;0.40;;;;;;;6.73;100.00;97184.91;5000608;28;20387;-76
2023/10/29 01:56:52;;;;;;;0.40;0.40;;;;;;;6.76;100.00;97185.25;5016447;28;20026;-75
2023/10/29 01:59:18;;;;;;;0.40;0.40;;;;;;;6.75;100.00;97180.16;5016931;28;20084;-76
2023/10/29 02:01:44;;;;;;;0.40;0.40;;;;;;;6.73;100.00;97179.56;4996460;28;20585;-75
2023/10/29 02:04:10;;;;;;;0.40;0.40;;;;;;;6.70;100.00;97182.72;5030673;28;20091;-76
2023/10/29 02:06:39;;;;;;;0.40;0.40;;;;;;;6.67;100.00;97188.53;5029870;28;20046;-76
2023/10/29 02:09:09;;;;;;;0.30;0.30;;;;;;;6.63;100.00;97187.38;5013871;28;20037;-76
2023/10/29 02:11:39;;;;;;;0.40;0.40;;;;;;;6.65;100.00;97186.09;5016486;28;20502;-76
2023/10/29 02:14:07;;;;;;;0.40;0.40;;;;;;;6.66;100.00;97193.06;5000258;28;20039;-76
2023/10/29 02:16:33;;;;;;;0.30;0.30;;;;;;;6.63;100.00;97182.84;5016111;28;20087;-76
2023/10/29 02:18:59;;;;;;;0.30;0.30;;;;;;;6.66;100.00;97187.72;5032574;28;20033;-76
2023/10/29 02:21:24;;;;;;;0.40;0.40;;;;;;;6.67;100.00;97188.53;5032656;28;20055;-76
2023/10/29 02:23:52;;;;;;;0.30;0.30;;;;;;;6.64;100.00;97189.81;5027239;28;20491;-75
2023/10/29 02:26:18;;;;;;;0.40;0.40;;;;;;;6.67;100.00;97191.19;5029260;28;20456;-76
2023/10/29 02:28:43;;;;;;;0.40;0.40;;;;;;;6.69;100.00;97195.25;5012738;28;20029;-75
2023/10/29 02:31:29;;;;;;;0.40;0.40;;;;;;;6.69;100.00;97199.78;4996168;28;20044;-75
2023/10/29 02:33:55;;;;;;;0.30;0.30;;;;;;;6.65;100.00;97194.13;5000695;28;20076;-75
2023/10/29 02:36:21;;;;;;;0.40;0.40;;;;;;;6.57;100.00;97187.28;5016237;28;20468;-77
2023/10/29 02:38:47;;;;;;;0.40;0.40;;;;;;;6.50;100.00;97191.16;5016280;28;20041;-77
2023/10/29 02:41:13;;;;;;;0.40;0.40;;;;;;;6.45;100.00;97185.69;5000083;28;20041;-77
2023/10/29 02:43:40;;;;;;;0.35;0.35;;;;;;;6.41;100.00;97180.03;4999897;28;20040;-78
2023/10/29 02:46:05;;;;;;;0.40;0.40;;;;;;;6.44;100.00;97179.56;5016212;28;20041;-79
2023/10/29 02:48:31;;;;;;;0.40;0.40;;;;;;;6.38;100.00;97178.66;5032498;28;20498;-74
2023/10/29 02:50:56;;;;;;;0.40;0.40;;;;;;;6.29;100.00;97176.59;4995420;28;20057;-77
2023/10/29 02:53:22;;;;;;;0.40;0.40;;;;;;;6.19;100.00;97171.03;5012523;28;20041;-77
2023/10/29 02:55:48;;;;;;;0.40;0.40;;;;;;;6.05;100.00;97165.16;5028685;28;20026;-77
2023/10/29 02:58:14;;;;;;;0.40;0.40;;;;;;;5.94;100.00;97167.59;5012498;28;20030;-74
2023/10/29 03:00:39;;;;;;;0.40;0.40;;;;;;;5.83;100.00;97160.41;4996371;28;20030;-77
2023/10/29 03:03:05;;;;;;;0.40;0.40;;;;;;;5.76;100.00;97172.22;5012736;28;20124;-77
2023/10/29 03:05:31;;;;;;;0.40;0.40;;;;;;;5.64;100.00;97170.38;5012761;28;20034;-77
2023/10/29 03:07:59;;;;;;;0.40;0.40;;;;;;;5.64;100.00;97180.25;5031687;28;20088;-74
2023/10/29 03:10:24;;;;;;;0.30;0.30;;;;;;;5.57;100.00;97179.53;5015329;28;20163;-78
2023/10/29 03:12:50;;;;;;;0.30;0.30;;;;;;;5.51;100.00;97170.63;5014509;28;20068;-75
2023/10/29 03:15:17;;;;;;;0.40;0.40;;;;;;;5.55;100.00;97176.28;5014389;28;20432;-77
2023/10/29 03:17:43;;;;;;;0.40;0.40;;;;;;;5.51;100.00;97171.44;4998233;28;20038;-76
2023/10/29 03:20:09;;;;;;;0.40;0.40;;;;;;;5.54;100.00;97164.81;5009547;28;20090;-77
2023/10/29 03:22:34;;;;;;;0.40;0.40;;;;;;;5.62;100.00;97166.34;5011233;28;20511;-77
2023/10/29 03:25:00;;;;;;;0.30;0.30;;;;;;;5.55;100.00;97161.09;5028427;28;20038;-79
2023/10/29 03:27:26;;;;;;;0.40;0.40;;;;;;;5.40;100.00;97147.44;5012849;28;20072;-76
2023/10/29 03:29:51;;;;;;;0.40;0.40;;;;;;;5.31;100.00;97152.28;5013393;28;20029;-77
2023/10/29 03:32:17;;;;;;;0.40;0.40;;;;;;;5.22;100.00;97151.81;5014743;28;20041;-77
2023/10/29 03:34:42;;;;;;;0.40;0.40;;;;;;;5.05;100.00;97161.50;4997339;28;20041;-77
2023/10/29 03:37:08;;;;;;;0.40;0.40;;;;;;;4.91;100.00;97154.78;5030207;28;20545;-76
2023/10/29 03:39:34;;;;;;;0.40;0.40;;;;;;;4.83;100.00;97153.25;5013605;28;20029;-76
2023/10/29 03:41:59;;;;;;;0.40;0.40;;;;;;;4.80;100.00;97146.53;4999406;28;20120;-76
2023/10/29 03:44:25;;;;;;;0.40;0.40;;;;;;;4.78;100.00;97137.97;5002391;28;20041;-77
2023/10/29 03:46:51;;;;;;;0.40;0.40;;;;;;;4.79;100.00;97134.28;5017251;28;20490;-77
2023/10/29 03:49:20;;;;;;;0.30;0.30;;;;;;;4.75;100.00;97140.28;5031471;28;20033;-78
2023/10/29 03:51:47;;;;;;;0.50;0.50;;;;;;;4.72;100.00;97144.19;5031286;28;20038;-77
2023/10/29 03:54:13;;;;;;;0.40;0.40;;;;;;;4.68;100.00;97145.69;4998958;28;20037;-77
2023/10/29 03:56:39;;;;;;;0.40;0.40;;;;;;;4.60;100.00;97149.50;5018336;28;20037;-77
2023/10/29 03:59:05;;;;;;;0.40;0.40;;;;;;;4.50;100.00;97137.75;5000823;28;20038;-77
2023/10/29 04:01:31;;;;;;;0.30;0.30;;;;;;;4.50;100.00;97138.59;5034758;28;20045;-78
2023/10/29 04:03:56;;;;;;;0.40;0.40;;;;;;;4.48;100.00;97137.19;5030983;28;20037;-77
2023/10/29 04:06:22;;;;;;;0.40;0.40;;;;;;;4.41;100.00;97130.09;5018988;28;20044;-77
2023/10/29 04:08:47;;;;;;;0.40;0.40;;;;;;;4.38;100.00;97138.50;5017666;28;20045;-77
2023/10/29 04:11:13;;;;;;;0.45;0.45;;;;;;;4.28;100.00;97135.56;5002535;28;20041;-77
2023/10/29 04:13:39;;;;;;;0.50;0.50;;;;;;;4.25;100.00;97135.22;5018737;28;20048;-77
2023/10/29 04:16:05;;;;;;;0.40;0.40;;;;;;;4.24;100.00;97138.94;5051421;28;20037;-77
2023/10/29 04:18:31;;;;;;;0.40;0.40;;;;;;;4.22;100.00;97136.47;5018864;28;20036;-77
2023/10/29 04:21:05;;;;;;;0.40;0.40;;;;;;;4.24;100.00;97129.09;5019476;28;20475;-77
2023/10/29 04:23:31;;;;;;;0.40;0.40;;;;;;;4.37;100.00;97138.75;5002305;28;20120;-77
2023/10/29 04:25:57;;;;;;;0.40;0.40;;;;;;;4.46;100.00;97136.59;5033805;28;20171;-77
2023/10/29 04:28:22;;;;;;;0.40;0.40;;;;;;;4.43;100.00;97131.72;5033893;28;20044;-77
2023/10/29 04:30:49;;;;;;;0.40;0.40;;;;;;;4.41;100.00;97135.41;5033811;28;20033;-77
2023/10/29 04:33:15;;;;;;;0.40;0.40;;;;;;;4.44;100.00;97138.66;5017992;28;20037;-76
2023/10/29 04:35:40;;;;;;;0.30;0.30;;;;;;;4.52;100.00;97133.81;5018275;28;20029;-77
2023/10/29 04:38:06;;;;;;;0.40;0.40;;;;;;;4.54;100.00;97139.72;5034823;28;20053;-76
2023/10/29 04:40:32;;;;;;;0.40;0.40;;;;;;;4.43;100.00;97142.38;5018352;28;20456;-77
2023/10/29 04:42:57;;;;;;;0.40;0.40;;;;;;;4.35;100.00;97151.47;5018612;28;20040;-78
2023/10/29 04:45:23;;;;;;;0.50;0.50;;;;;;;4.31;100.00;97140.47;5018303;28;20498;-76
2023/10/29 04:47:48;;;;;;;0.40;0.40;;;;;;;4.24;100.00;97142.41;5034716;28;20033;-77
2023/10/29 04:50:14;;;;;;;0.40;0.40;;;;;;;4.14;100.00;97153.56;4995316;28;20528;-76
2023/10/29 04:52:40;;;;;;;0.40;0.40;;;;;;;4.01;100.00;97142.28;4981812;28;20083;-76
2023/10/29 04:55:05;;;;;;;0.40;0.40;;;;;;;3.96;100.00;97135.75;5030998;28;20064;-76
2023/10/29 04:57:33;;;;;;;0.40;0.40;;;;;;;3.94;100.00;97150.31;4998208;28;20038;-76
2023/10/29 04:59:59;;;;;;;0.40;0.40;;;;;;;3.76;100.00;97143.16;4998287;28;20543;-76
2023/10/29 05:02:24;;;;;;;0.40;0.40;;;;;;;3.68;100.00;97138.94;5017663;28;20116;-76
2023/10/29 05:04:53;;;;;;;0.30;0.30;;;;;;;3.61;100.00;97135.53;5034308;28;20037;-76
2023/10/29 05:07:19;;;;;;;0.40;0.40;;;;;;;3.63;100.00;97144.09;5034077;28;20033;-76
2023/10/29 05:09:45;;;;;;;0.40;0.40;;;;;;;3.63;100.00;97138.78;5029479;28;20033;-76
2023/10/29 05:12:11;;;;;;;0.43;0.43;;;;;;;3.66;100.00;97132.22;5016569;28;20033;-76
2023/10/29 05:14:36;;;;;;;0.40;0.40;;;;;;;3.66;100.00;97133.03;5017530;28;20033;-76
2023/10/29 05:17:02;;;;;;;0.50;0.50;;;;;;;3.76;100.00;97140.50;5000063;28;20107;-77
2023/10/29 05:19:28;;;;;;;0.40;0.40;;;;;;;3.68;100.00;97140.81;5017703;28;20041;-76
2023/10/29 05:21:54;;;;;;;0.40;0.40;;;;;;;3.49;100.00;97142.59;5017553;28;20026;-76
2023/10/29 05:24:20;;;;;;;0.40;0.40;;;;;;;3.38;100.00;97149.44;5009741;28;20037;-76
2023/10/29 05:26:46;;;;;;;0.40;0.40;;;;;;;3.28;100.00;97142.00;5013973;28;20052;-76
2023/10/29 05:29:12;;;;;;;0.40;0.40;;;;;;;3.07;100.00;97127.25;5030388;28;20473;-76
2023/10/29 05:31:38;;;;;;;0.40;0.40;;;;;;;3.04;100.00;97146.28;4997450;28;20030;-76
2023/10/29 05:34:03;;;;;;;0.40;0.40;;;;;;;3.02;100.00;97142.22;5030341;28;20044;-76
2023/10/29 05:36:29;;;;;;;0.40;0.40;;;;;;;3.06;100.00;97143.38;5047622;28;20072;-76
2023/10/29 05:38:54;;;;;;;0.40;0.40;;;;;;;3.06;100.00;97148.69;5066387;28;20029;-76
2023/10/29 05:41:20;;;;;;;0.40;0.40;;;;;;;3.07;100.00;97139.72;5016968;28;20460;-76
2023/10/29 05:43:45;;;;;;;0.40;0.40;;;;;;;3.12;100.00;97144.38;5033170;28;20116;-76
2023/10/29 05:46:12;;;;;;;0.50;0.50;;;;;;;3.05;100.00;97136.47;5017011;28;20033;-76
2023/10/29 05:48:37;;;;;;;0.40;0.40;;;;;;;3.01;100.00;97141.38;5033055;28;20036;-77
2023/10/29 05:51:03;;;;;;;0.40;0.40;;;;;;;3.04;100.00;97151.59;5000494;28;20049;-76
2023/10/29 05:53:29;;;;;;;0.40;0.40;;;;;;;3.03;100.00;97141.97;5000739;28;20495;-76
2023/10/29 05:55:55;;;;;;;0.40;0.40;;;;;;;3.12;100.00;97150.47;5016763;28;20112;-76
2023/10/29 05:58:20;;;;;;;0.40;0.40;;;;;;;3.17;100.00;97149.84;5033120;28;20033;-76
2023/10/29 06:00:46;;;;;;;0.40;0.40;;;;;;;3.17;100.00;97149.84;5016941;28;20033;-76
2023/10/29 06:03:12;;;;;;;0.50;0.50;;;;;;;3.08;100.00;97154.59;5000463;28;20091;-76
2023/10/29 06:05:37;;;;;;;0.50;0.50;;;;;;;3.00;100.00;97155.69;5032188;28;20116;-76
2023/10/29 06:08:05;;;;;;;0.40;0.40;;;;;;;2.94;100.00;97161.03;5032746;28;20042;-76
2023/10/29 06:10:30;;;;;;;0.40;0.40;;;;;;;2.81;100.00;97167.25;5033078;28;20028;-76
2023/10/29 06:12:58;;;;;;;0.40;0.40;;;;;;;2.76;100.00;97156.47;5016209;28;20021;-75
2023/10/29 06:15:24;;;;;;;0.40;0.40;;;;;;;2.63;100.00;97166.13;5032854;28;20037;-76
2023/10/29 06:17:49;;;;;;;0.40;0.40;;;;;;;2.52;100.00;97166.00;5000240;28;20045;-75
2023/10/29 06:20:18;;;;;;;0.40;0.40;;;;;;;2.57;100.00;97164.34;5032952;28;20494;-76
2023/10/29 06:22:44;;;;;;;0.40;0.40;;;;;;;2.57;100.00;97160.88;5032674;28;20098;-76
2023/10/29 06:25:10;;;;;;;0.40;0.40;;;;;;;2.64;100.00;97162.44;5032693;28;20476;-76
2023/10/29 06:27:36;;;;;;;0.40;0.40;;;;;;;2.69;100.00;97166.31;5033922;28;20033;-76
2023/10/29 06:30:01;;;;;;;0.40;0.40;;;;;;;2.69;100.00;97163.66;5016421;28;20037;-76
2023/10/29 06:32:27;;;;;;;0.40;0.40;;;;;;;2.80;100.00;97161.13;5033335;28;20036;-76
2023/10/29 06:34:52;;;;;;;0.50;0.50;;;;;;;2.82;100.00;97168.88;4999872;28;20372;-77
2023/10/29 06:37:18;;;;;;;0.40;0.40;;;;;;;2.78;100.00;97167.66;5032642;28;20164;-76
2023/10/29 06:39:43;;;;;;;0.40;0.40;;;;;;;2.82;100.00;97159.06;5015890;28;20041;-75
2023/10/29 06:42:09;;;;;;;0.40;0.40;;;;;;;2.92;100.00;97163.91;5016168;28;20456;-76
2023/10/29 06:44:35;;;;;;;0.40;0.40;;;;;;;2.96;100.00;97153.66;5015931;28;20033;-76
2023/10/29 06:47:00;;;;;;;0.40;0.40;;;;;;;3.03;100.00;97157.91;5016106;28;20479;-76
2023/10/29 06:49:26;;;;;;;0.40;0.40;;;;;;;3.04;100.00;97156.06;5033410;28;20025;-76
2023/10/29 06:51:53;;;;;;;0.50;0.50;;;;;;;3.01;100.00;97146.69;4999911;28;20472;-76
2023/10/29 06:54:18;;;;;;;0.45;0.45;;;;;;;3.18;100.00;97160.25;5012792;28;20033;-76
2023/10/29 06:56:44;;;;;;;0.40;0.40;;;;;;;3.27;100.00;97158.13;4998325;28;20183;-77
2023/10/29 06:59:10;;;;;;;0.40;0.40;;;;;;;3.23;100.00;97164.91;5032356;28;20032;-76
2023/10/29 07:01:35;;;;;;;0.40;0.40;;;;;;;3.18;100.00;97164.75;5030067;28;20037;-76
2023/10/29 07:04:01;;;;;;;0.50;0.50;;;;;;;3.26;100.00;97156.50;5013969;28;20116;-76
2023/10/29 07:06:27;;;;;;;0.40;0.40;;;;;;;3.30;100.00;97163.00;5031965;28;20060;-76
2023/10/29 07:08:52;;;;;;;0.50;0.50;;;;;;;3.17;100.00;97168.41;5006334;28;20061;-76
2023/10/29 07:11:18;;;;;;;0.40;0.40;;;;;;;3.22;100.00;97165.94;5015757;28;20525;-76
2023/10/29 07:13:44;;;;;;;0.40;0.40;;;;;;;3.57;100.00;97174.19;5013389;28;20042;-76
2023/10/29 07:16:10;;;;;;;0.40;0.40;;;;;;;3.65;100.00;97178.41;4997163;28;20037;-78
2023/10/29 07:18:36;;;;;;;0.43;0.43;;;;;;;3.74;100.00;97177.91;5029202;28;20025;-77
2023/10/29 07:21:02;;;;;;;0.50;0.50;;;;;;;3.65;100.00;97183.72;5003401;28;20033;-76
2023/10/29 07:23:27;;;;;;;0.40;0.40;;;;;;;3.50;100.00;97187.53;5016148;28;20418;-77
2023/10/29 07:25:53;;;;;;;0.43;0.43;;;;;;;3.50;100.00;97187.53;5018726;28;20034;-76
2023/10/29 07:28:19;;;;;;;0.40;0.40;;;;;;;3.60;100.00;97186.22;5017736;28;20041;-76
2023/10/29 07:30:45;;;;;;;0.40;0.40;;;;;;;3.67;100.00;97194.94;5049017;28;20484;-77
2023/10/29 07:33:11;;;;;;;0.40;0.40;;;;;;;3.75;100.00;97190.16;5015439;28;20033;-76
2023/10/29 07:35:38;;;;;;;0.35;0.35;;;;;;;3.67;100.00;97184.31;5032441;28;20029;-77
2023/10/29 07:38:04;;;;;;;0.40;0.40;;;;;;;3.70;100.00;97205.13;5033676;28;20091;-79
2023/10/29 07:40:30;;;;;;;0.40;0.40;;;;;;;3.62;100.00;97200.09;5030507;28;20029;-77
2023/10/29 07:42:55;;;;;;;0.40;0.40;;;;;;;3.59;100.00;97189.91;5031278;28;20143;-76
2023/10/29 07:45:21;;;;;;;0.45;0.45;;;;;;;3.73;100.00;97196.72;5019358;28;20029;-76
2023/10/29 07:47:46;;;;;;;0.40;0.40;;;;;;;3.70;100.00;97199.81;5003028;28;20037;-76
2023/10/29 07:50:21;;;;;;;0.40;0.40;;;;;;;3.77;100.00;97200.56;5032182;28;20037;-77
2023/10/29 07:52:47;;;;;;;0.40;0.40;;;;;;;3.92;100.00;97211.69;5017920;28;20033;-77
2023/10/29 07:55:13;;;;;;;0.40;0.40;;;;;;;3.91;100.00;97207.38;5014798;28;20026;-77
2023/10/29 07:57:39;;;;;;;0.40;0.40;;;;;;;3.85;100.00;97204.78;5017461;28;20043;-76
2023/10/29 08:00:13;;;;;;;0.40;0.40;;;;;;;3.85;100.00;97210.91;5031840;28;20033;-76
2023/10/29 08:02:40;;;;;;;0.40;0.40;;;;;;;4.01;100.00;97208.72;5014417;28;20029;-76
2023/10/29 08:05:06;;;;;;;0.50;0.50;;;;;;;4.22;100.00;97216.25;5032551;28;20044;-76
2023/10/29 08:07:31;;;;;;;0.40;0.40;;;;;;;4.36;100.00;97219.56;4999675;28;20029;-76
2023/10/29 08:09:57;;;;;;;0.40;0.40;;;;;;;4.43;100.00;97220.31;5031811;28;20048;-76
2023/10/29 08:12:23;;;;;;;0.40;0.40;;;;;;;4.41;100.00;97223.19;5002545;28;20471;-76
2023/10/29 08:14:49;;;;;;;0.40;0.40;;;;;;;4.42;100.00;97226.69;5028256;28;20167;-76
2023/10/29 08:17:17;;;;;;;0.45;0.45;;;;;;;4.66;100.00;97226.78;4998241;28;20037;-76
2023/10/29 08:19:46;;;;;;;0.40;0.40;;;;;;;4.85;100.00;97229.19;4997892;28;20120;-76
2023/10/29 08:22:12;;;;;;;0.40;0.40;;;;;;;4.99;100.00;97231.66;5009684;28;20515;-76
2023/10/29 08:24:39;;;;;;;0.40;0.40;;;;;;;5.12;100.00;97234.13;5029304;28;20037;-76
2023/10/29 08:27:07;;;;;;;0.40;0.40;;;;;;;5.18;100.00;97230.56;5025707;28;20054;-76
2023/10/29 08:29:38;;;;;;;0.50;0.50;;;;;;;5.28;100.00;97228.16;5034254;28;20045;-76
2023/10/29 08:32:04;;;;;;;0.45;0.45;;;;;;;5.48;100.00;97235.03;5002762;28;20051;-76
2023/10/29 08:34:30;;;;;;;0.50;0.50;;;;;;;5.73;100.00;97237.47;5015747;28;20424;-78
2023/10/29 08:36:56;;;;;;;0.50;0.50;;;;;;;5.83;100.00;97240.38;5001234;28;20072;-75
2023/10/29 08:39:23;;;;;;;0.50;0.50;;;;;;;6.11;100.00;97247.72;4997588;28;20029;-76
2023/10/29 08:41:49;;;;;;;0.50;0.50;;;;;;;6.49;100.00;97246.38;5030829;28;20069;-76
2023/10/29 08:44:15;;;;;;;0.50;0.50;;;;;;;6.67;100.00;97247.25;5030018;28;20391;-77
2023/10/29 08:46:43;;;;;;;0.50;0.50;;;;;;;6.98;100.00;97254.81;5049092;28;20087;-76
2023/10/29 08:49:09;;;;;;;0.50;0.50;;;;;;;7.11;100.00;97250.22;5017623;28;20775;-77
2023/10/29 08:51:34;;;;;;;0.50;0.50;;;;;;;6.73;100.00;97255.13;5014376;28;20021;-76
2023/10/29 08:54:03;;;;;;;0.40;0.40;;;;;;;6.64;100.00;97253.88;5013274;28;20045;-76
2023/10/29 08:56:32;;;;;;;0.40;0.40;;;;;;;6.87;100.00;97263.69;4997591;28;20387;-76
2023/10/29 08:58:58;;;;;;;0.47;0.47;;;;;;;7.18;100.00;97264.25;4998713;28;20069;-76
2023/10/29 09:01:23;;;;;;;0.50;0.50;;;;;;;7.65;100.00;97259.47;5015045;28;20080;-77
2023/10/29 09:03:49;;;;;;;0.57;0.57;;;;;;;8.13;100.00;97265.28;4997718;28;20030;-77
2023/10/29 09:06:14;;;;;;;0.47;0.47;;;;;;;8.07;100.00;97255.53;5027121;28;20036;-78
2023/10/29 09:08:41;;;;;;;0.50;0.50;;;;;;;8.23;100.00;97259.25;5011156;28;20041;-76
2023/10/29 09:11:12;;;;;;;0.47;0.47;;;;;;;8.27;100.00;97258.50;5006912;28;20045;-76
2023/10/29 09:13:41;;;;;;;0.45;0.45;;;;;;;8.05;100.00;97268.38;4987444;28;20049;-76
2023/10/29 09:16:07;;;;;;;0.50;0.50;;;;;;;8.24;100.00;97267.03;4999947;28;20088;-76
2023/10/29 09:18:33;;;;;;;0.50;0.50;;;;;;;8.92;100.00;97272.22;5012928;28;20456;-77
2023/10/29 09:20:58;;;;;;;0.50;0.50;;;;;;;9.39;100.00;97272.47;5015922;28;20072;-76
2023/10/29 09:23:24;;;;;;;0.50;0.50;;;;;;;9.64;100.00;97279.91;5031574;28;20029;-77
2023/10/29 09:25:50;;;;;;;0.50;0.50;;;;;;;9.90;100.00;97277.44;4997040;28;20030;-76
2023/10/29 09:28:16;;;;;;;0.50;0.50;;;;;;;10.10;100.00;97280.25;4997213;28;20472;-77
2023/10/29 09:30:42;;;;;;;0.55;0.55;;;;;;;10.21;100.00;97281.13;5023709;28;20075;-78
2023/10/29 09:33:09;;;;;;;0.60;0.60;;;;;;;10.33;100.00;97281.78;5030038;28;20029;-76
2023/10/29 09:35:35;;;;;;;0.40;0.40;;;;;;;10.42;100.00;97273.25;5015840;28;20065;-77
2023/10/29 09:38:01;;;;;;;0.50;0.50;;;;;;;10.59;100.00;97276.56;4997602;28;20059;-76
2023/10/29 09:40:27;;;;;;;0.60;0.60;;;;;;;10.76;100.00;97279.06;5032966;28;20442;-76
2023/10/29 09:42:54;;;;;;;0.50;0.50;;;;;;;10.73;100.00;97266.16;5033089;28;20029;-76
2023/10/29 09:45:23;;;;;;;0.50;0.50;;;;;;;10.90;100.00;97268.63;5017369;28;20384;-76
2023/10/29 09:47:50;;;;;;;0.40;0.40;;;;;;;11.06;100.00;97281.06;5000702;28;20045;-76
2023/10/29 09:50:15;;;;;;;0.50;0.50;;;;;;;11.15;100.00;97282.16;5000708;28;20532;-77
2023/10/29 09:52:41;;;;;;;0.50;0.50;;;;;;;11.23;100.00;97280.84;5033354;28;20108;-77
2023/10/29 09:55:08;;;;;;;0.50;0.50;;;;;;;11.38;100.00;97286.25;5016454;28;20042;-76
2023/10/29 09:57:34;;;;;;;0.50;0.50;;;;;;;11.47;100.00;97283.84;5000589;28;20053;-76
2023/10/29 10:00:00;;;;;;;0.40;0.40;;;;;;;11.57;100.00;97288.44;5000515;28;20034;-76
2023/10/29 10:02:26;;;;;;;0.50;0.50;;;;;;;11.86;100.00;97286.88;5033231;28;20068;-76
2023/10/29 10:04:54;;;;;;;0.50;0.50;;;;;;;12.09;100.00;97295.47;5017018;28;20033;-76
2023/10/29 10:07:21;;;;;;;0.47;0.47;;;;;;;12.08;100.00;97293.88;5033063;28;20033;-76
2023/10/29 10:09:55;;;;;;;0.40;0.40;;;;;;;12.01;100.00;97298.72;5034142;28;20029;-76
2023/10/29 10:12:21;;;;;;;0.50;0.50;;;;;;;12.07;100.00;97297.66;5016745;28;20111;-77
2023/10/29 10:14:48;;;;;;;0.40;0.40;;;;;;;12.30;100.00;97297.09;5032801;28;20475;-76
2023/10/29 10:17:14;;;;;;;0.52;0.52;;;;;;;12.34;100.00;97293.84;5000099;28;20134;-76
2023/10/29 10:19:40;;;;;;;0.40;0.40;;;;;;;12.28;100.00;97299.25;5016160;28;20396;-74
2023/10/29 10:22:06;;;;;;;0.57;0.57;;;;;;;12.45;100.00;97298.16;5016056;28;20064;-76
2023/10/29 10:24:48;;;;;;;0.60;0.60;;;;;;;12.60;100.00;97305.41;5016358;28;20037;-76
2023/10/29 10:27:13;;;;;;;0.45;0.45;;;;;;;12.69;100.00;97309.13;5016741;28;20391;-75
2023/10/29 10:29:39;;;;;;;0.47;0.47;;;;;;;12.65;100.00;97303.50;5032893;28;20044;-76
2023/10/29 10:32:06;;;;;;;0.60;0.60;;;;;;;12.55;100.00;97311.59;5016393;28;20136;-74
2023/10/29 10:34:34;;;;;;;0.50;0.50;;;;;;;12.57;100.00;97304.06;5016254;28;20037;-74
2023/10/29 10:37:00;;;;;;;0.60;0.60;;;;;;;12.73;100.00;97305.63;4999724;28;20176;-74
2023/10/29 10:39:31;;;;;;;0.50;0.50;;;;;;;12.74;100.00;97301.84;4999985;28;20061;-73
2023/10/29 10:41:59;;;;;;;0.50;0.50;;;;;;;12.49;100.00;97304.59;5032459;28;20041;-73
2023/10/29 10:44:26;;;;;;;0.50;0.50;;;;;;;12.14;100.00;97305.44;5016525;28;20033;-77
2023/10/29 10:46:57;;;;;;;0.40;0.40;;;;;;;11.59;100.00;97305.94;4994305;28;20049;-75
2023/10/29 10:49:24;;;;;;;0.50;0.50;;;;;;;11.27;100.00;97316.88;5010959;28;20539;-76
2023/10/29 10:51:55;;;;;;;0.40;0.40;;;;;;;11.35;100.00;97315.56;5014245;28;20033;-76
2023/10/29 10:54:24;;;;;;;0.43;0.43;;;;;;;11.82;100.00;97310.00;4980408;28;20042;-74
2023/10/29 10:56:51;;;;;;;0.40;0.40;;;;;;;11.75;100.00;97320.22;4997323;28;20037;-74
2023/10/29 10:59:18;;;;;;;0.30;0.30;;;;;;;11.10;100.00;97313.59;4999007;28;20034;-76
2023/10/29 11:01:44;;;;;;;0.40;0.40;;;;;;;10.65;100.00;97328.44;5026312;28;20538;-76
2023/10/29 11:04:10;;;;;;;0.40;0.40;;;;;;;11.22;100.00;97327.66;5011007;28;20112;-77
2023/10/29 11:06:37;;;;;;;0.40;0.40;;;;;;;10.87;100.00;97334.47;5025482;28;20124;-76
2023/10/29 11:09:14;;;;;;;0.40;0.40;;;;;;;10.59;100.00;97342.94;4998623;28;20488;-76
2023/10/29 11:11:49;;;;;;;0.40;0.40;;;;;;;10.54;100.00;97336.44;5013100;28;20029;-76
2023/10/29 11:14:19;;;;;;;0.40;0.40;;;;;;;10.67;100.00;97345.13;5013322;28;20049;-76
2023/10/29 11:16:49;;;;;;;0.40;0.40;;;;;;;10.97;100.00;97337.22;5011296;28;20117;-76
2023/10/29 11:19:35;;;;;;;0.40;0.40;;;;;;;11.60;100.00;97336.34;5014990;28;20061;-76
2023/10/29 11:22:13;;;;;;;0.47;0.47;;;;;;;11.73;100.00;97337.72;5029207;28;20625;-76
2023/10/29 11:24:39;;;;;;;0.40;0.40;;;;;;;11.62;100.00;97339.59;5029325;28;20029;-76
2023/10/29 11:27:35;;;;;;;0.40;0.40;;;;;;;11.26;100.00;97341.38;5029041;28;20112;-76